createdAt,value
2022-09-17T00:01:49.912Z,97994.25
2022-09-17T00:04:16.114Z,98001.34
2022-09-17T00:06:42.294Z,98007.81
2022-09-17T00:09:08.648Z,97998.84
2022-09-17T00:11:34.800Z,98000.28
2022-09-17T00:14:00.989Z,98020.59
2022-09-17T00:16:27.317Z,98031.69
2022-09-17T00:18:53.597Z,98031.19
2022-09-17T00:21:19.808Z,98019.56
2022-09-17T00:23:46.033Z,98018.81
2022-09-17T00:26:12.236Z,98023.47
2022-09-17T00:28:38.432Z,98023.25
2022-09-17T00:31:04.653Z,98033.00
2022-09-17T00:33:30.803Z,98025.72
2022-09-17T00:35:57.019Z,98022.63
2022-09-17T00:38:23.201Z,98031.50
2022-09-17T00:40:49.439Z,98034.56
2022-09-17T00:43:15.613Z,98035.22
2022-09-17T00:45:41.752Z,98029.63
2022-09-17T00:48:07.867Z,98037.41
2022-09-17T00:50:34.116Z,98038.09
2022-09-17T00:53:00.329Z,98032.03
2022-09-17T00:55:26.431Z,98020.09
2022-09-17T00:57:52.694Z,98027.69
2022-09-17T01:00:18.837Z,98031.16
2022-09-17T01:02:44.937Z,98025.66
2022-09-17T01:05:11.014Z,98038.50
2022-09-17T01:07:37.130Z,98023.44
2022-09-17T01:10:03.265Z,98032.31
2022-09-17T01:12:29.408Z,98038.09
2022-09-17T01:14:55.506Z,98044.25
2022-09-17T01:17:21.625Z,98035.31
2022-09-17T01:19:47.733Z,98039.78
2022-09-17T01:22:13.887Z,98044.09
2022-09-17T01:24:39.998Z,98038.00
2022-09-17T01:27:06.114Z,98036.31
2022-09-17T01:29:32.221Z,98046.03
2022-09-17T01:31:58.322Z,98043.00
2022-09-17T01:34:24.411Z,98038.91
2022-09-17T01:36:50.518Z,98030.66
2022-09-17T01:39:16.626Z,98035.31
2022-09-17T01:41:42.730Z,98037.44
2022-09-17T01:44:08.857Z,98050.66
2022-09-17T01:46:34.993Z,98046.53
2022-09-17T01:49:01.120Z,98049.81
2022-09-17T01:51:27.233Z,98056.59
2022-09-17T01:53:53.472Z,98041.69
2022-09-17T01:56:19.671Z,98053.28
2022-09-17T01:58:45.771Z,98046.72
2022-09-17T02:01:11.943Z,98043.88
2022-09-17T02:03:38.076Z,98055.94
2022-09-17T02:06:04.199Z,98042.25
2022-09-17T02:08:30.289Z,98057.00
2022-09-17T02:10:56.433Z,98050.72
2022-09-17T02:13:22.628Z,98046.25
2022-09-17T02:15:48.779Z,98060.63
2022-09-17T02:18:14.882Z,98060.78
2022-09-17T02:20:40.997Z,98057.47
2022-09-17T02:23:07.104Z,98053.97
2022-09-17T02:25:33.207Z,98057.47
2022-09-17T02:27:59.655Z,98062.63
2022-09-17T02:30:25.758Z,98072.88
2022-09-17T02:32:51.854Z,98067.59
2022-09-17T02:35:17.960Z,98069.09
2022-09-17T02:37:44.058Z,98056.06
2022-09-17T02:40:10.172Z,98066.97
2022-09-17T02:42:36.346Z,98063.16
2022-09-17T02:45:02.449Z,98057.47
2022-09-17T02:47:28.548Z,98066.75
2022-09-17T02:49:54.668Z,98070.03
2022-09-17T02:52:20.761Z,98069.91
2022-09-17T02:54:46.850Z,98075.19
2022-09-17T02:57:12.963Z,98063.78
2022-09-17T02:59:39.066Z,98060.94
2022-09-17T03:02:05.290Z,98057.47
2022-09-17T03:04:31.502Z,98051.81
2022-09-17T03:06:57.602Z,98057.31
2022-09-17T03:09:23.699Z,98059.97
2022-09-17T03:11:49.820Z,98060.06
2022-09-17T03:14:15.941Z,98059.09
2022-09-17T03:16:42.050Z,98044.75
2022-09-17T03:19:08.220Z,98062.91
2022-09-17T03:21:34.322Z,98057.75
2022-09-17T03:24:00.427Z,98061.53
2022-09-17T03:26:26.547Z,98062.09
2022-09-17T03:28:52.659Z,98076.56
2022-09-17T03:31:18.826Z,98060.72
2022-09-17T03:33:44.959Z,98063.56
2022-09-17T03:36:11.040Z,98064.50
2022-09-17T03:38:37.131Z,98066.72
2022-09-17T03:41:03.250Z,98064.53
2022-09-17T03:43:29.364Z,98071.97
2022-09-17T03:45:55.454Z,98068.66
2022-09-17T03:48:21.565Z,98074.31
2022-09-17T03:50:47.661Z,98076.78
2022-09-17T03:53:13.749Z,98073.34
2022-09-17T03:55:39.856Z,98085.94
2022-09-17T03:58:05.957Z,98075.13
2022-09-17T04:00:32.045Z,98084.09
2022-09-17T04:02:58.200Z,98086.59
2022-09-17T04:05:24.365Z,98095.00
2022-09-17T04:07:50.461Z,98080.78
2022-09-17T04:10:16.590Z,98099.50
2022-09-17T04:12:42.701Z,98083.47
2022-09-17T04:15:08.804Z,98083.94
2022-09-17T04:17:34.922Z,98085.25
2022-09-17T04:20:01.023Z,98095.38
2022-09-17T04:22:27.105Z,98091.06
2022-09-17T04:24:53.218Z,98093.03
2022-09-17T04:27:19.313Z,98080.50
2022-09-17T04:29:45.420Z,98086.84
2022-09-17T04:32:11.569Z,98087.13
2022-09-17T04:34:37.675Z,98094.22
2022-09-17T04:37:03.774Z,98082.38
2022-09-17T04:39:29.889Z,98090.97
2022-09-17T04:41:55.990Z,98106.63
2022-09-17T04:44:22.110Z,98107.66
2022-09-17T04:46:48.288Z,98087.66
2022-09-17T04:49:14.412Z,98095.59
2022-09-17T04:51:40.506Z,98096.56
2022-09-17T04:54:06.629Z,98107.66
2022-09-17T04:56:32.735Z,98104.69
2022-09-17T04:58:58.836Z,98110.81
2022-09-17T05:01:25.032Z,98117.91
2022-09-17T05:03:51.156Z,98115.59
2022-09-17T05:06:17.243Z,98119.59
2022-09-17T05:08:43.353Z,98112.94
2022-09-17T05:11:09.449Z,98111.97
2022-09-17T05:13:35.542Z,98106.88
2022-09-17T05:16:01.687Z,98111.81
2022-09-17T05:18:27.832Z,98118.06
2022-09-17T05:20:53.976Z,98112.13
2022-09-17T05:23:20.073Z,98110.44
2022-09-17T05:25:46.156Z,98116.25
2022-09-17T05:28:12.255Z,98119.09
2022-09-17T05:30:38.377Z,98114.56
2022-09-17T05:33:04.474Z,98118.56
2022-09-17T05:35:30.570Z,98126.63
2022-09-17T05:37:57.227Z,98111.94
2022-09-17T05:40:23.377Z,98124.28
2022-09-17T05:42:49.525Z,98132.72
2022-09-17T05:45:15.643Z,98125.44
2022-09-17T05:47:41.732Z,98123.31
2022-09-17T05:50:07.835Z,98126.16
2022-09-17T05:52:33.963Z,98122.69
2022-09-17T05:55:00.085Z,98136.53
2022-09-17T05:57:26.180Z,98142.63
2022-09-17T05:59:52.325Z,98138.97
2022-09-17T06:02:18.511Z,98145.09
2022-09-17T06:04:44.694Z,98149.41
2022-09-17T06:07:10.812Z,98159.03
2022-09-17T06:09:36.904Z,98152.72
2022-09-17T06:12:02.996Z,98154.03
2022-09-17T06:14:29.102Z,98154.69
2022-09-17T06:16:55.186Z,98150.03
2022-09-17T06:19:21.292Z,98158.31
2022-09-17T06:21:47.883Z,98160.41
2022-09-17T06:24:13.974Z,98154.94
2022-09-17T06:26:40.054Z,98157.03
2022-09-17T06:29:06.174Z,98166.66
2022-09-17T06:31:32.353Z,98166.28
2022-09-17T06:33:58.682Z,98178.50
2022-09-17T06:36:24.821Z,98168.56
2022-09-17T06:38:50.907Z,98180.34
2022-09-17T06:41:17.018Z,98167.84
2022-09-17T06:43:43.136Z,98163.06
2022-09-17T06:46:09.491Z,98182.75
2022-09-17T06:48:35.679Z,98176.91
2022-09-17T06:51:01.783Z,98174.44
2022-09-17T06:53:27.876Z,98175.44
2022-09-17T06:55:53.972Z,98170.44
2022-09-17T06:58:20.445Z,98173.09
2022-09-17T07:00:46.607Z,98188.69
2022-09-17T07:03:12.717Z,98185.41
2022-09-17T07:05:38.819Z,98193.72
2022-09-17T07:08:04.906Z,98189.53
2022-09-17T07:10:30.995Z,98206.94
2022-09-17T07:12:57.105Z,98216.88
2022-09-17T07:15:23.185Z,98199.53
2022-09-17T07:17:49.291Z,98206.00
2022-09-17T07:20:15.398Z,98208.28
2022-09-17T07:22:41.489Z,98204.25
2022-09-17T07:25:07.586Z,98198.94
2022-09-17T07:27:33.687Z,98190.81
2022-09-17T07:29:59.786Z,98188.84
2022-09-17T07:32:29.726Z,98192.22
2022-09-17T07:34:55.890Z,98191.94
2022-09-17T07:37:22.013Z,98189.69
2022-09-17T07:39:48.103Z,98184.03
2022-09-17T07:42:14.775Z,98199.28
2022-09-17T07:44:40.942Z,98190.94
2022-09-17T07:47:07.053Z,98193.53
2022-09-17T07:49:33.172Z,98198.69
2022-09-17T07:51:59.256Z,98196.38
2022-09-17T07:54:25.359Z,98203.19
2022-09-17T07:56:51.458Z,98192.72
2022-09-17T07:59:17.550Z,98191.31
2022-09-17T08:01:43.725Z,98212.13
2022-09-17T08:04:09.893Z,98200.38
2022-09-17T08:06:35.993Z,98190.94
2022-09-17T08:09:02.108Z,98187.34
2022-09-17T08:11:51.875Z,98196.97
2022-09-17T08:14:14.306Z,98204.03
2022-09-17T08:16:40.430Z,98204.91
2022-09-17T08:19:06.527Z,98194.78
2022-09-17T08:21:32.618Z,98209.16
2022-09-17T08:23:58.720Z,98197.44
2022-09-17T08:26:24.830Z,98200.97
2022-09-17T08:28:50.928Z,98190.41
2022-09-17T08:31:17.460Z,98196.09
2022-09-17T08:33:43.719Z,98189.28
2022-09-17T08:36:09.896Z,98215.91
2022-09-17T08:38:38.256Z,98194.59
2022-09-17T08:41:04.679Z,98200.44
2022-09-17T08:43:30.804Z,98193.81
2022-09-17T08:45:57.512Z,98196.00
2022-09-17T08:48:23.598Z,98208.22
2022-09-17T08:50:49.696Z,98204.69
2022-09-17T08:53:15.799Z,98205.59
2022-09-17T08:55:41.903Z,98196.28
2022-09-17T08:58:07.984Z,98207.81
2022-09-17T09:00:34.093Z,98204.25
2022-09-17T09:03:00.220Z,98211.94
2022-09-17T09:05:26.345Z,98202.91
2022-09-17T09:07:52.459Z,98199.31
2022-09-17T09:10:18.548Z,98193.19
2022-09-17T09:12:44.639Z,98203.81
2022-09-17T09:15:10.742Z,98206.66
2022-09-17T09:17:36.843Z,98206.47
2022-09-17T09:20:02.937Z,98238.31
2022-09-17T09:22:29.050Z,98197.59
2022-09-17T09:24:55.153Z,98191.19
2022-09-17T09:27:21.246Z,98196.94
2022-09-17T09:29:47.343Z,98215.91
2022-09-17T09:32:16.590Z,98228.94
2022-09-17T09:34:43.024Z,98215.09
2022-09-17T09:37:10.372Z,98215.91
2022-09-17T09:39:42.492Z,98225.81
2022-09-17T09:42:11.353Z,98211.69
2022-09-17T09:44:37.511Z,98215.88
2022-09-17T09:47:03.660Z,98186.84
2022-09-17T09:49:30.428Z,98205.53
2022-09-17T09:51:56.529Z,98199.69
2022-09-17T09:54:22.626Z,98212.38
2022-09-17T09:56:48.740Z,98214.69
2022-09-17T09:59:14.833Z,98208.63
2022-09-17T10:01:41.026Z,98222.94
2022-09-17T10:04:07.206Z,98217.38
2022-09-17T10:06:33.301Z,98201.38
2022-09-17T10:08:59.419Z,98203.47
2022-09-17T10:11:25.573Z,98227.38
2022-09-17T10:13:51.738Z,98224.78
2022-09-17T10:16:17.934Z,98207.53
2022-09-17T10:18:44.207Z,98204.72
2022-09-17T10:21:10.302Z,98194.53
2022-09-17T10:23:36.444Z,98185.78
2022-09-17T10:26:02.690Z,98203.09
2022-09-17T10:28:28.920Z,98200.25
2022-09-17T10:30:55.257Z,98196.50
2022-09-17T10:33:21.932Z,98201.75
2022-09-17T10:35:48.036Z,98194.47
2022-09-17T10:38:14.172Z,98197.00
2022-09-17T10:40:40.316Z,98209.16
2022-09-17T10:43:06.446Z,98187.56
2022-09-17T10:45:32.687Z,98200.94
2022-09-17T10:47:58.820Z,98184.97
2022-09-17T10:50:26.105Z,98192.06
2022-09-17T10:52:52.237Z,98191.03
2022-09-17T10:55:18.340Z,98200.44
2022-09-17T10:57:44.431Z,98181.91
2022-09-17T11:00:10.572Z,98194.47
2022-09-17T11:02:36.830Z,98160.06
2022-09-17T11:05:03.206Z,98178.25
2022-09-17T11:07:29.322Z,98173.78
2022-09-17T11:09:55.450Z,98154.81
2022-09-17T11:12:21.546Z,98157.19
2022-09-17T11:14:47.625Z,98177.75
2022-09-17T11:17:13.732Z,98181.84
2022-09-17T11:19:39.879Z,98167.91
2022-09-17T11:22:05.983Z,98189.09
2022-09-17T11:24:34.281Z,98181.31
2022-09-17T11:27:00.373Z,98192.50
2022-09-17T11:29:26.465Z,98197.91
2022-09-17T11:31:52.654Z,98199.31
2022-09-17T11:34:18.913Z,98183.25
2022-09-17T11:36:45.045Z,98187.44
2022-09-17T11:39:11.643Z,98146.38
2022-09-17T11:41:37.736Z,98189.09
2022-09-17T11:44:03.891Z,98210.19
2022-09-17T11:46:30.118Z,98193.38
2022-09-17T11:48:56.283Z,98193.09
2022-09-17T11:51:22.381Z,98197.75
2022-09-17T11:53:48.491Z,98207.19
2022-09-17T11:56:16.127Z,98178.91
2022-09-17T11:58:42.792Z,98156.94
2022-09-17T12:01:08.890Z,98154.16
2022-09-17T12:03:34.995Z,98183.84
2022-09-17T12:06:01.094Z,98177.06
2022-09-17T12:08:27.201Z,98172.41
2022-09-17T12:10:53.282Z,98173.78
2022-09-17T12:13:19.398Z,98160.63
2022-09-17T12:15:48.675Z,98163.50
2022-09-17T12:18:33.459Z,98169.84
2022-09-17T12:20:59.820Z,98186.88
2022-09-17T12:23:25.906Z,98162.72
2022-09-17T12:25:52.000Z,98159.50
2022-09-17T12:28:18.125Z,98145.16
2022-09-17T12:30:44.213Z,98156.78
2022-09-17T12:33:10.302Z,98164.97
2022-09-17T12:36:02.404Z,98145.75
2022-09-17T12:38:22.482Z,98151.91
2022-09-17T12:40:48.954Z,98166.59
2022-09-17T12:43:15.048Z,98164.81
2022-09-17T12:45:41.142Z,98194.31
2022-09-17T12:48:07.312Z,98181.72
2022-09-17T12:50:33.425Z,98173.22
2022-09-17T12:52:59.523Z,98191.16
2022-09-17T12:55:25.973Z,98183.19
2022-09-17T12:57:52.063Z,98203.81
2022-09-17T13:00:18.154Z,98185.47
2022-09-17T13:02:44.252Z,98160.44
2022-09-17T13:05:10.356Z,98165.47
2022-09-17T13:07:36.454Z,98169.22
2022-09-17T13:10:02.567Z,98169.03
2022-09-17T13:12:28.653Z,98178.28
2022-09-17T13:14:54.754Z,98153.63
2022-09-17T13:17:20.848Z,98159.38
2022-09-17T13:19:46.944Z,98161.00
2022-09-17T13:22:13.044Z,98148.28
2022-09-17T13:24:39.153Z,98154.06
2022-09-17T13:27:05.364Z,98159.59
2022-09-17T13:29:31.574Z,98171.66
2022-09-17T13:31:57.729Z,98176.47
2022-09-17T13:34:23.815Z,98172.88
2022-09-17T13:36:49.914Z,98192.28
2022-09-17T13:39:16.043Z,98190.72
2022-09-17T13:41:42.142Z,98195.09
2022-09-17T13:44:08.238Z,98181.63
2022-09-17T13:46:34.482Z,98185.13
2022-09-17T13:49:00.686Z,98194.19
2022-09-17T13:51:26.807Z,98183.75
2022-09-17T13:53:52.993Z,98183.56
2022-09-17T13:56:19.093Z,98185.94
2022-09-17T13:58:45.387Z,98196.41
2022-09-17T14:01:11.910Z,98167.53
2022-09-17T14:03:38.188Z,98179.38
2022-09-17T14:06:04.278Z,98175.44
2022-09-17T14:08:30.460Z,98186.75
2022-09-17T14:10:56.857Z,98184.06
2022-09-17T14:13:22.969Z,98187.56
2022-09-17T14:15:49.111Z,98176.88
2022-09-17T14:18:15.215Z,98164.91
2022-09-17T14:20:41.322Z,98191.91
2022-09-17T14:23:07.433Z,98191.09
2022-09-17T14:25:33.567Z,98188.63
2022-09-17T14:27:59.892Z,98180.38
2022-09-17T14:30:26.162Z,98175.97
2022-09-17T14:32:52.481Z,98174.50
2022-09-17T14:35:20.324Z,98188.63
2022-09-17T14:37:46.766Z,98179.94
2022-09-17T14:40:13.455Z,98194.75
2022-09-17T14:42:39.614Z,98182.66
2022-09-17T14:45:05.838Z,98183.59
2022-09-17T14:47:31.987Z,98180.78
2022-09-17T14:49:58.209Z,98186.53
2022-09-17T14:52:24.394Z,98182.16
2022-09-17T14:54:50.492Z,98184.13
2022-09-17T14:57:16.578Z,98165.25
2022-09-17T14:59:43.040Z,98187.22
2022-09-17T15:02:09.235Z,98180.28
2022-09-17T15:04:35.401Z,98191.56
2022-09-17T15:07:01.518Z,98189.31
2022-09-17T15:09:27.608Z,98188.31
2022-09-17T15:11:53.718Z,98194.25
2022-09-17T15:14:19.826Z,98200.31
2022-09-17T15:16:45.911Z,98201.06
2022-09-17T15:19:12.007Z,98196.75
2022-09-17T15:21:38.118Z,98222.47
2022-09-17T15:24:04.212Z,98211.31
2022-09-17T15:26:30.324Z,98191.63
2022-09-17T15:28:56.422Z,98186.06
2022-09-17T15:31:22.654Z,98177.44
2022-09-17T15:33:48.840Z,98183.91
2022-09-17T15:36:14.943Z,98190.53
2022-09-17T15:38:41.029Z,98179.59
2022-09-17T15:41:07.122Z,98171.69
2022-09-17T15:43:33.254Z,98171.28
2022-09-17T15:45:59.376Z,98180.28
2022-09-17T15:48:25.479Z,98178.88
2022-09-17T15:50:52.065Z,98172.13
2022-09-17T15:53:18.157Z,98152.97
2022-09-17T15:55:44.276Z,98158.78
2022-09-17T15:58:10.394Z,98172.31
2022-09-17T16:00:36.493Z,98172.31
2022-09-17T16:03:02.768Z,98177.63
2022-09-17T16:05:28.973Z,98170.75
2022-09-17T16:07:55.085Z,98174.97
2022-09-17T16:10:21.205Z,98180.09
2022-09-17T16:12:47.335Z,98173.91
2022-09-17T16:15:13.438Z,98187.25
2022-09-17T16:17:39.520Z,98182.63
2022-09-17T16:20:06.491Z,98183.19
2022-09-17T16:22:32.649Z,98179.28
2022-09-17T16:24:58.730Z,98174.03
2022-09-17T16:27:24.855Z,98181.50
2022-09-17T16:29:50.937Z,98186.53
2022-09-17T16:32:17.045Z,98182.06
2022-09-17T16:34:43.167Z,98175.63
2022-09-17T16:37:09.265Z,98189.88
2022-09-17T16:39:35.357Z,98188.53
2022-09-17T16:42:01.574Z,98176.88
2022-09-17T16:44:27.672Z,98195.41
2022-09-17T16:46:53.817Z,98184.44
2022-09-17T16:49:19.944Z,98188.84
2022-09-17T16:51:46.050Z,98214.63
2022-09-17T16:54:12.141Z,98216.28
2022-09-17T16:56:38.247Z,98242.63
2022-09-17T16:59:04.347Z,98226.94
2022-09-17T17:01:30.474Z,98222.44
2022-09-17T17:03:58.162Z,98228.16
2022-09-17T17:06:24.253Z,98227.50
2022-09-17T17:08:50.348Z,98231.50
2022-09-17T17:11:16.968Z,98225.97
2022-09-17T17:13:43.106Z,98223.38
2022-09-17T17:16:09.281Z,98226.81
2022-09-17T17:18:35.675Z,98223.28
2022-09-17T17:21:01.772Z,98231.69
2022-09-17T17:23:27.853Z,98238.75
2022-09-17T17:25:53.957Z,98234.66
2022-09-17T17:28:20.056Z,98226.94
2022-09-17T17:30:46.162Z,98229.69
2022-09-17T17:33:12.274Z,98231.78
2022-09-17T17:35:38.374Z,98232.78
2022-09-17T17:38:04.480Z,98227.81
2022-09-17T17:40:30.637Z,98242.22
2022-09-17T17:42:56.819Z,98238.31
2022-09-17T17:45:22.930Z,98251.75
2022-09-17T17:47:49.055Z,98248.63
2022-09-17T17:50:15.196Z,98250.50
2022-09-17T17:52:44.155Z,98240.91
2022-09-17T17:55:10.261Z,98249.69
2022-09-17T17:57:36.353Z,98248.84
2022-09-17T18:00:02.445Z,98247.03
2022-09-17T18:02:28.732Z,98255.78
2022-09-17T18:04:54.892Z,98258.81
2022-09-17T18:07:20.994Z,98257.03
2022-09-17T18:09:47.144Z,98261.69
2022-09-17T18:12:13.307Z,98259.19
2022-09-17T18:14:39.430Z,98261.91
2022-09-17T18:17:05.559Z,98261.75
2022-09-17T18:19:31.649Z,98262.94
2022-09-17T18:21:57.729Z,98276.19
2022-09-17T18:24:23.855Z,98276.38
2022-09-17T18:26:49.958Z,98283.69
2022-09-17T18:29:16.054Z,98282.03
2022-09-17T18:31:42.223Z,98294.47
2022-09-17T18:34:08.404Z,98289.84
2022-09-17T18:36:34.529Z,98294.00
2022-09-17T18:39:11.053Z,98292.97
2022-09-17T18:41:46.836Z,98284.56
2022-09-17T18:44:13.089Z,98297.00
2022-09-17T18:46:39.413Z,98292.50
2022-09-17T18:49:05.616Z,98296.34
2022-09-17T18:51:31.754Z,98301.94
2022-09-17T18:53:57.859Z,98305.25
2022-09-17T18:56:23.950Z,98305.44
2022-09-17T18:58:50.052Z,98306.06
2022-09-17T19:01:16.290Z,98301.44
2022-09-17T19:03:42.512Z,98307.06
2022-09-17T19:06:08.636Z,98295.66
2022-09-17T19:08:34.735Z,98299.63
2022-09-17T19:11:00.832Z,98309.69
2022-09-17T19:13:27.000Z,98309.88
2022-09-17T19:15:53.238Z,98307.03
2022-09-17T19:18:19.452Z,98312.19
2022-09-17T19:20:45.641Z,98306.06
2022-09-17T19:23:11.784Z,98308.03
2022-09-17T19:25:37.900Z,98309.53
2022-09-17T19:28:04.013Z,98309.53
2022-09-17T19:30:30.174Z,98315.31
2022-09-17T19:32:56.291Z,98317.31
2022-09-17T19:35:22.398Z,98318.47
2022-09-17T19:37:48.495Z,98311.50
2022-09-17T19:40:14.649Z,98311.03
2022-09-17T19:42:40.831Z,98305.53
2022-09-17T19:45:06.957Z,98315.47
2022-09-17T19:47:33.054Z,98302.56
2022-09-17T19:49:59.360Z,98301.22
2022-09-17T19:52:25.444Z,98302.56
2022-09-17T19:54:51.545Z,98299.94
2022-09-17T19:57:17.693Z,98299.59
2022-09-17T19:59:43.780Z,98304.56
2022-09-17T20:02:09.937Z,98307.91
2022-09-17T20:04:36.205Z,98299.28
2022-09-17T20:07:02.354Z,98307.91
2022-09-17T20:09:28.481Z,98302.78
2022-09-17T20:11:54.892Z,98314.50
2022-09-17T20:14:20.980Z,98306.41
2022-09-17T20:16:47.095Z,98305.25
2022-09-17T20:19:13.624Z,98311.19
2022-09-17T20:21:39.787Z,98313.19
2022-09-17T20:24:05.883Z,98315.16
2022-09-17T20:26:32.001Z,98315.84
2022-09-17T20:28:58.217Z,98319.28
2022-09-17T20:31:24.408Z,98305.72
2022-09-17T20:33:50.556Z,98308.50
2022-09-17T20:36:16.691Z,98307.03
2022-09-17T20:39:11.385Z,98303.06
2022-09-17T20:41:28.894Z,98311.19
2022-09-17T20:43:54.973Z,98307.38
2022-09-17T20:46:24.825Z,98306.88
2022-09-17T20:48:53.874Z,98311.69
2022-09-17T20:51:19.982Z,98316.47
2022-09-17T20:53:46.086Z,98319.78
2022-09-17T20:56:12.196Z,98319.47
2022-09-17T20:58:38.276Z,98317.00
2022-09-17T21:01:04.369Z,98328.72
2022-09-17T21:03:30.960Z,98321.94
2022-09-17T21:05:57.072Z,98324.09
2022-09-17T21:08:23.186Z,98318.97
2022-09-17T21:10:49.305Z,98330.06
2022-09-17T21:13:15.406Z,98321.13
2022-09-17T21:15:41.553Z,98328.41
2022-09-17T21:18:09.070Z,98320.13
2022-09-17T21:20:35.170Z,98315.84
2022-09-17T21:23:01.262Z,98322.47
2022-09-17T21:25:27.383Z,98324.44
2022-09-17T21:27:53.468Z,98336.19
2022-09-17T21:30:19.561Z,98328.25
2022-09-17T21:32:45.668Z,98321.31
2022-09-17T21:35:11.770Z,98331.56
2022-09-17T21:37:37.862Z,98333.25
2022-09-17T21:40:04.122Z,98333.56
2022-09-17T21:42:30.266Z,98331.41
2022-09-17T21:44:56.357Z,98330.09
2022-09-17T21:47:22.470Z,98324.47
2022-09-17T21:49:48.557Z,98337.69
2022-09-17T21:52:14.664Z,98326.75
2022-09-17T21:54:40.795Z,98328.41
2022-09-17T21:57:06.911Z,98327.78
2022-09-17T21:59:33.008Z,98329.47
2022-09-17T22:01:59.171Z,98332.41
2022-09-17T22:04:25.329Z,98323.63
2022-09-17T22:06:51.421Z,98331.72
2022-09-17T22:09:17.578Z,98335.38
2022-09-17T22:11:43.718Z,98334.59
2022-09-17T22:14:09.808Z,98325.66
2022-09-17T22:16:36.011Z,98322.00
2022-09-17T22:19:02.182Z,98309.25
2022-09-17T22:21:28.267Z,98326.00
2022-09-17T22:23:54.453Z,98324.81
2022-09-17T22:26:20.554Z,98341.06
2022-09-17T22:28:46.652Z,98330.31
2022-09-17T22:31:12.789Z,98332.59
2022-09-17T22:33:38.965Z,98339.25
2022-09-17T22:36:05.074Z,98335.09
2022-09-17T22:38:31.176Z,98330.97
2022-09-17T22:40:57.264Z,98332.78
2022-09-17T22:43:23.357Z,98335.94
2022-09-17T22:45:49.486Z,98334.59
2022-09-17T22:48:15.806Z,98332.13
2022-09-17T22:50:41.899Z,98325.53
2022-09-17T22:53:08.037Z,98326.69
2022-09-17T22:55:34.127Z,98333.47
2022-09-17T22:58:00.221Z,98323.03
2022-09-17T23:00:26.361Z,98324.38
2022-09-17T23:02:52.572Z,98321.91
2022-09-17T23:05:18.701Z,98322.69
2022-09-17T23:07:45.121Z,98306.66
2022-09-17T23:10:11.227Z,98309.63
2022-09-17T23:12:37.343Z,98321.53
2022-09-17T23:15:03.467Z,98329.66
2022-09-17T23:17:29.637Z,98322.53
2022-09-17T23:19:55.741Z,98319.56
2022-09-17T23:22:21.859Z,98316.28
2022-09-17T23:24:47.948Z,98320.09
2022-09-17T23:27:14.030Z,98321.25
2022-09-17T23:29:40.426Z,98320.06
2022-09-17T23:32:06.573Z,98323.22
2022-09-17T23:34:32.666Z,98328.50
2022-09-17T23:36:58.764Z,98324.03
2022-09-17T23:39:24.903Z,98319.94
2022-09-17T23:41:50.993Z,98315.44
2022-09-17T23:44:17.097Z,98319.94
2022-09-17T23:46:43.300Z,98306.34
2022-09-17T23:49:09.445Z,98314.59
2022-09-17T23:51:35.546Z,98311.81
2022-09-17T23:54:01.666Z,98319.75
2022-09-17T23:56:27.806Z,98318.91
2022-09-17T23:58:53.915Z,98318.56
